createdAt,value
2019-05-12T00:01:12.577Z,9.40
2019-05-12T00:03:41.480Z,9.40
2019-05-12T00:06:10.327Z,9.40
2019-05-12T00:08:39.289Z,9.40
2019-05-12T00:11:08.956Z,9.40
2019-05-12T00:13:38.479Z,9.30
2019-05-12T00:16:08.775Z,9.30
2019-05-12T00:18:38.042Z,9.30
2019-05-12T00:21:08.784Z,9.20
2019-05-12T00:23:58.211Z,9.20
2019-05-12T00:26:28.300Z,9.20
2019-05-12T00:28:58.787Z,9.20
2019-05-12T00:31:28.158Z,9.20
2019-05-12T00:33:58.681Z,9.10
2019-05-12T00:36:29.240Z,9.10
2019-05-12T00:38:58.444Z,9.00
2019-05-12T00:41:28.374Z,9.10
2019-05-12T00:43:58.264Z,9.00
2019-05-12T00:46:27.816Z,9.00
2019-05-12T00:48:58.521Z,8.90
2019-05-12T00:51:28.893Z,8.90
2019-05-12T00:53:58.362Z,8.90
2019-05-12T00:56:28.471Z,8.90
2019-05-12T00:58:57.997Z,8.80
2019-05-12T01:01:28.544Z,8.80
2019-05-12T01:03:58.034Z,8.80
2019-05-12T01:06:28.297Z,8.70
2019-05-12T01:08:57.932Z,8.70
2019-05-12T01:11:28.645Z,8.70
2019-05-12T01:13:58.353Z,8.70
2019-05-12T01:16:28.904Z,8.60
2019-05-12T01:18:58.631Z,8.60
2019-05-12T01:21:28.739Z,8.60
2019-05-12T01:24:03.334Z,8.60
2019-05-12T01:26:28.568Z,8.50
2019-05-12T01:28:58.112Z,8.50
2019-05-12T01:31:29.474Z,8.50
2019-05-12T01:33:58.691Z,8.50
2019-05-12T01:36:28.720Z,8.40
2019-05-12T01:38:59.135Z,8.40
2019-05-12T01:41:28.769Z,8.40
2019-05-12T01:43:58.414Z,8.30
2019-05-12T01:46:28.841Z,8.30
2019-05-12T01:48:59.074Z,8.30
2019-05-12T01:51:28.508Z,8.20
2019-05-12T01:54:10.584Z,8.20
2019-05-12T01:56:28.913Z,8.20
2019-05-12T01:58:57.960Z,8.10
2019-05-12T02:01:28.062Z,8.10
2019-05-12T02:03:58.593Z,8.10
2019-05-12T02:06:27.957Z,8.10
2019-05-12T02:08:59.650Z,8.00
2019-05-12T02:11:31.872Z,8.00
2019-05-12T02:14:04.997Z,8.00
2019-05-12T02:16:34.104Z,7.90
2019-05-12T02:19:03.069Z,7.90
2019-05-12T02:21:31.963Z,7.90
2019-05-12T02:24:01.101Z,7.90
2019-05-12T02:26:29.889Z,7.80
2019-05-12T02:28:58.809Z,7.80
2019-05-12T02:31:29.473Z,7.80
2019-05-12T02:33:58.564Z,7.80
2019-05-12T02:36:27.703Z,7.70
2019-05-12T02:38:56.522Z,7.70
2019-05-12T02:41:26.146Z,7.70
2019-05-12T02:43:55.574Z,7.60
2019-05-12T02:46:25.569Z,7.60
2019-05-12T02:48:54.939Z,7.60
2019-05-12T02:51:24.899Z,7.60
2019-05-12T02:53:56.109Z,7.50
2019-05-12T02:56:26.136Z,7.50
2019-05-12T02:58:55.874Z,7.50
2019-05-12T03:01:28.233Z,7.40
2019-05-12T03:03:59.111Z,7.40
2019-05-12T03:06:29.378Z,7.40
2019-05-12T03:09:04.852Z,7.30
2019-05-12T03:11:35.518Z,7.30
2019-05-12T03:14:04.473Z,7.30
2019-05-12T03:16:34.996Z,7.30
2019-05-12T03:19:05.155Z,7.20
2019-05-12T03:21:35.566Z,7.20
2019-05-12T03:24:06.314Z,7.20
2019-05-12T03:26:35.826Z,7.20
2019-05-12T03:29:06.021Z,7.10
2019-05-12T03:31:39.944Z,7.10
2019-05-12T03:34:09.642Z,7.10
2019-05-12T03:36:42.147Z,7.10
2019-05-12T03:39:09.178Z,7.00
2019-05-12T03:41:38.265Z,7.00
2019-05-12T03:44:07.145Z,7.00
2019-05-12T03:46:36.060Z,6.90
2019-05-12T03:49:05.575Z,6.90
2019-05-12T03:51:35.366Z,6.90
2019-05-12T03:54:05.352Z,6.90
2019-05-12T03:56:35.097Z,6.80
2019-05-12T03:59:05.329Z,6.80
2019-05-12T04:01:36.676Z,6.80
2019-05-12T04:04:06.118Z,6.80
2019-05-12T04:06:35.212Z,6.80
2019-05-12T04:09:07.447Z,6.70
2019-05-12T04:11:36.720Z,6.70
2019-05-12T04:14:05.939Z,6.70
2019-05-12T04:16:36.540Z,6.70
2019-05-12T04:19:05.916Z,6.70
2019-05-12T04:21:35.627Z,6.70
2019-05-12T04:24:05.894Z,6.70
2019-05-12T04:26:36.575Z,6.70
2019-05-12T04:29:06.316Z,6.70
2019-05-12T04:31:36.316Z,6.70
2019-05-12T04:34:05.659Z,6.70
2019-05-12T04:36:35.827Z,6.70
2019-05-12T04:39:07.428Z,6.70
2019-05-12T04:41:36.818Z,6.70
2019-05-12T04:44:06.271Z,6.70
2019-05-12T04:46:35.566Z,6.70
2019-05-12T04:49:05.484Z,6.70
2019-05-12T04:51:35.243Z,6.70
2019-05-12T04:54:05.884Z,6.70
2019-05-12T04:56:36.006Z,6.70
2019-05-12T04:59:05.407Z,6.70
2019-05-12T05:01:35.519Z,6.80
2019-05-12T05:04:05.715Z,6.80
2019-05-12T05:06:35.558Z,6.80
2019-05-12T05:09:06.697Z,6.80
2019-05-12T05:11:35.920Z,6.90
2019-05-12T05:14:05.173Z,6.90
2019-05-12T05:16:34.816Z,6.90
2019-05-12T05:19:03.973Z,6.90
2019-05-12T05:21:34.420Z,6.90
2019-05-12T05:24:03.989Z,7.00
2019-05-12T05:26:36.710Z,7.00
2019-05-12T05:29:04.294Z,7.10
2019-05-12T05:31:33.978Z,7.10
2019-05-12T05:34:04.723Z,7.10
2019-05-12T05:36:34.712Z,7.20
2019-05-12T05:39:06.703Z,7.20
2019-05-12T05:41:40.074Z,7.20
2019-05-12T05:44:06.311Z,7.30
2019-05-12T05:46:38.943Z,7.30
2019-05-12T05:49:05.761Z,7.30
2019-05-12T05:51:39.634Z,7.40
2019-05-12T05:54:05.222Z,7.40
2019-05-12T05:56:42.375Z,7.40
2019-05-12T05:59:04.846Z,7.60
2019-05-12T06:01:34.713Z,7.70
2019-05-12T06:04:08.396Z,7.90
2019-05-12T06:06:34.675Z,8.10
2019-05-12T06:09:06.226Z,8.30
2019-05-12T06:11:35.193Z,8.50
2019-05-12T06:14:11.395Z,8.70
2019-05-12T06:16:35.037Z,8.90
2019-05-12T06:19:04.047Z,9.10
2019-05-12T06:21:36.299Z,9.20
2019-05-12T06:24:03.760Z,9.40
2019-05-12T06:26:35.685Z,9.50
2019-05-12T06:29:04.495Z,9.60
2019-05-12T06:31:33.957Z,9.80
2019-05-12T06:34:06.298Z,9.90
2019-05-12T06:36:34.157Z,10.10
2019-05-12T06:39:10.269Z,10.20
2019-05-12T06:41:36.786Z,10.40
2019-05-12T06:44:09.008Z,10.50
2019-05-12T06:46:36.610Z,10.70
2019-05-12T06:49:12.866Z,10.80
2019-05-12T06:51:36.344Z,10.80
2019-05-12T06:54:11.882Z,10.90
2019-05-12T06:56:36.268Z,11.00
2019-05-12T06:59:09.928Z,11.00
2019-05-12T07:01:35.747Z,11.10
2019-05-12T07:04:08.434Z,11.20
2019-05-12T07:06:35.758Z,11.30
2019-05-12T07:09:09.881Z,11.30
2019-05-12T07:11:44.827Z,11.40
2019-05-12T07:14:19.090Z,11.40
2019-05-12T07:16:39.100Z,11.40
2019-05-12T07:19:20.549Z,11.40
2019-05-12T07:21:38.529Z,11.40
2019-05-12T07:24:11.053Z,11.30
2019-05-12T07:26:37.983Z,11.40
2019-05-12T07:29:06.819Z,11.40
2019-05-12T07:31:35.914Z,11.40
2019-05-12T07:34:07.734Z,11.40
2019-05-12T07:36:35.750Z,11.50
2019-05-12T07:39:08.580Z,11.50
2019-05-12T07:41:42.311Z,11.50
2019-05-12T07:44:09.908Z,11.50
2019-05-12T07:46:39.601Z,11.50
2019-05-12T07:49:09.390Z,11.50
2019-05-12T07:51:40.633Z,11.50
2019-05-12T07:54:09.068Z,11.50
2019-05-12T07:56:40.828Z,11.50
2019-05-12T07:59:08.816Z,11.50
2019-05-12T08:01:46.645Z,11.50
2019-05-12T08:04:08.346Z,11.50
2019-05-12T08:06:41.713Z,11.50
2019-05-12T08:09:08.189Z,11.50
2019-05-12T08:11:38.901Z,11.60
2019-05-12T08:14:13.720Z,11.60
2019-05-12T08:16:38.563Z,11.60
2019-05-12T08:19:08.524Z,11.60
2019-05-12T08:21:43.711Z,11.60
2019-05-12T08:24:08.211Z,11.70
2019-05-12T08:26:37.086Z,11.80
2019-05-12T08:29:10.361Z,11.80
2019-05-12T08:31:40.413Z,11.90
2019-05-12T08:34:07.325Z,12.00
2019-05-12T08:36:36.226Z,12.00
2019-05-12T08:39:11.736Z,12.10
2019-05-12T08:41:37.834Z,12.10
2019-05-12T08:44:06.759Z,12.20
2019-05-12T08:46:35.565Z,12.20
2019-05-12T08:49:05.374Z,12.20
2019-05-12T08:51:34.638Z,12.30
2019-05-12T08:54:07.968Z,12.30
2019-05-12T08:56:34.171Z,12.40
2019-05-12T08:59:04.312Z,12.40
2019-05-12T09:01:34.441Z,12.50
2019-05-12T09:04:06.462Z,12.50
2019-05-12T09:06:34.995Z,12.60
2019-05-12T09:09:07.157Z,12.60
2019-05-12T09:11:36.093Z,12.60
2019-05-12T09:14:05.969Z,12.70
2019-05-12T09:16:35.305Z,12.70
2019-05-12T09:19:04.998Z,12.70
2019-05-12T09:21:36.960Z,12.70
2019-05-12T09:24:04.724Z,12.70
2019-05-12T09:26:34.374Z,12.70
2019-05-12T09:29:03.717Z,12.70
2019-05-12T09:31:33.695Z,12.80
2019-05-12T09:34:11.063Z,12.80
2019-05-12T09:36:34.072Z,12.90
2019-05-12T09:39:05.839Z,13.00
2019-05-12T09:41:42.749Z,13.00
2019-05-12T09:44:06.268Z,13.10
2019-05-12T09:46:37.607Z,13.20
2019-05-12T09:49:05.781Z,13.20
2019-05-12T09:51:41.243Z,13.30
2019-05-12T09:54:25.932Z,13.30
2019-05-12T09:56:59.364Z,13.30
2019-05-12T09:59:25.948Z,13.40
2019-05-12T10:01:55.010Z,13.40
2019-05-12T10:04:24.241Z,13.40
